createdAt,value
2018-08-14T00:00:55.581Z,17.30
2018-08-14T00:03:24.096Z,17.40
2018-08-14T00:05:52.659Z,17.40
2018-08-14T00:08:21.124Z,17.40
2018-08-14T00:10:49.654Z,17.40
2018-08-14T00:13:18.193Z,17.40
2018-08-14T00:15:48.851Z,17.40
2018-08-14T00:18:17.817Z,17.40
2018-08-14T00:20:46.340Z,17.40
2018-08-14T00:23:14.842Z,17.50
2018-08-14T00:25:43.357Z,17.40
2018-08-14T00:28:12.277Z,17.40
2018-08-14T00:30:42.340Z,17.40
2018-08-14T00:33:10.814Z,17.30
2018-08-14T00:35:39.404Z,17.40
2018-08-14T00:38:08.359Z,17.40
2018-08-14T00:40:37.082Z,17.30
2018-08-14T00:43:07.713Z,17.30
2018-08-14T00:45:36.288Z,17.30
2018-08-14T00:48:05.125Z,17.40
2018-08-14T00:50:33.636Z,17.30
2018-08-14T00:53:02.173Z,17.30
2018-08-14T00:55:30.701Z,17.30
2018-08-14T00:57:59.168Z,17.30
2018-08-14T01:00:29.857Z,17.40
2018-08-14T01:02:58.727Z,17.40
2018-08-14T01:05:27.505Z,17.40
2018-08-14T01:07:56.088Z,17.40
2018-08-14T01:10:24.605Z,17.40
2018-08-14T01:12:55.316Z,17.40
2018-08-14T01:15:30.006Z,17.30
2018-08-14T01:17:59.109Z,17.40
2018-08-14T01:20:29.247Z,17.30
2018-08-14T01:22:57.800Z,17.30
2018-08-14T01:25:26.341Z,17.30
2018-08-14T01:27:55.343Z,17.30
2018-08-14T01:30:26.656Z,17.30
2018-08-14T01:32:55.664Z,17.30
2018-08-14T01:35:24.216Z,17.30
2018-08-14T01:37:52.684Z,17.30
2018-08-14T01:40:21.625Z,17.30
2018-08-14T01:42:50.090Z,17.30
2018-08-14T01:45:18.769Z,17.30
2018-08-14T01:47:47.310Z,17.30
2018-08-14T01:50:20.097Z,17.20
2018-08-14T01:52:48.866Z,17.20
2018-08-14T01:55:18.367Z,17.20
2018-08-14T01:57:47.117Z,17.20
2018-08-14T02:00:15.657Z,17.20
2018-08-14T02:02:44.180Z,17.20
2018-08-14T02:05:12.681Z,17.20
2018-08-14T02:07:41.448Z,17.20
2018-08-14T02:10:12.128Z,17.10
2018-08-14T02:12:40.641Z,17.10
2018-08-14T02:15:10.867Z,17.10
2018-08-14T02:17:39.696Z,17.10
2018-08-14T02:20:11.128Z,17.10
2018-08-14T02:22:40.392Z,17.00
2018-08-14T02:25:09.568Z,17.10
2018-08-14T02:27:38.049Z,17.00
2018-08-14T02:30:07.733Z,17.10
2018-08-14T02:32:36.612Z,17.00
2018-08-14T02:35:06.165Z,17.00
2018-08-14T02:37:35.173Z,17.00
2018-08-14T02:40:03.720Z,17.00
2018-08-14T02:42:32.204Z,17.00
2018-08-14T02:45:00.685Z,17.00
2018-08-14T02:47:29.196Z,16.90
2018-08-14T02:49:57.741Z,16.90
2018-08-14T02:52:26.240Z,16.90
2018-08-14T02:54:55.433Z,16.90
2018-08-14T02:57:23.929Z,16.90
2018-08-14T02:59:52.435Z,16.90
2018-08-14T03:02:20.929Z,16.90
2018-08-14T03:04:49.413Z,16.90
2018-08-14T03:07:17.886Z,16.90
2018-08-14T03:09:46.373Z,16.90
2018-08-14T03:12:14.893Z,16.90
2018-08-14T03:14:49.724Z,16.90
2018-08-14T03:17:18.236Z,16.80
2018-08-14T03:19:46.756Z,16.70
2018-08-14T03:22:15.177Z,16.60
2018-08-14T03:24:43.633Z,16.60
2018-08-14T03:27:12.226Z,16.70
2018-08-14T03:29:40.709Z,16.70
2018-08-14T03:32:09.280Z,16.70
2018-08-14T03:34:37.731Z,16.80
2018-08-14T03:37:06.268Z,16.80
2018-08-14T03:39:34.747Z,16.80
2018-08-14T03:42:03.276Z,16.80
2018-08-14T03:44:31.719Z,16.90
2018-08-14T03:47:00.221Z,16.80
2018-08-14T03:49:28.713Z,16.80
2018-08-14T03:51:57.532Z,16.90
2018-08-14T03:54:26.093Z,16.80
2018-08-14T03:56:54.609Z,16.80
2018-08-14T03:59:23.105Z,16.90
2018-08-14T04:01:51.706Z,16.90
2018-08-14T04:04:20.200Z,16.90
2018-08-14T04:06:48.767Z,16.80
2018-08-14T04:09:17.288Z,16.80
2018-08-14T04:11:45.756Z,16.80
2018-08-14T04:14:14.268Z,16.80
2018-08-14T04:16:46.185Z,16.80
2018-08-14T04:19:14.988Z,16.80
2018-08-14T04:21:43.976Z,16.80
2018-08-14T04:24:12.688Z,16.80
2018-08-14T04:26:41.172Z,16.80
2018-08-14T04:29:09.937Z,16.80
2018-08-14T04:31:38.408Z,16.80
2018-08-14T04:34:06.877Z,16.80
2018-08-14T04:36:35.356Z,16.80
2018-08-14T04:39:05.484Z,16.80
2018-08-14T04:41:33.961Z,16.80
2018-08-14T04:44:02.440Z,16.80
2018-08-14T04:46:30.961Z,16.80
2018-08-14T04:49:00.195Z,16.70
2018-08-14T04:51:29.276Z,16.70
2018-08-14T04:53:57.884Z,16.70
2018-08-14T04:56:26.347Z,16.70
2018-08-14T04:58:55.588Z,16.70
2018-08-14T05:01:24.108Z,16.70
2018-08-14T05:03:52.732Z,16.80
2018-08-14T05:06:21.197Z,16.70
2018-08-14T05:08:49.799Z,16.70
2018-08-14T05:11:18.289Z,16.70
2018-08-14T05:13:46.841Z,16.60
2018-08-14T05:16:15.336Z,16.50
2018-08-14T05:18:43.780Z,16.50
2018-08-14T05:21:12.285Z,16.60
2018-08-14T05:23:41.341Z,16.60
2018-08-14T05:26:09.858Z,16.60
2018-08-14T05:28:38.353Z,16.50
2018-08-14T05:31:06.860Z,16.50
2018-08-14T05:33:35.532Z,16.50
2018-08-14T05:36:03.992Z,16.50
2018-08-14T05:38:32.476Z,16.60
2018-08-14T05:41:00.985Z,16.70
2018-08-14T05:43:30.203Z,16.60
2018-08-14T05:45:59.153Z,16.60
2018-08-14T05:48:27.637Z,16.60
2018-08-14T05:50:56.893Z,16.60
2018-08-14T05:53:25.357Z,16.60
2018-08-14T05:55:53.837Z,16.60
2018-08-14T05:58:22.332Z,16.60
2018-08-14T06:00:51.280Z,16.50
2018-08-14T06:03:19.776Z,16.50
2018-08-14T06:05:48.310Z,16.50
2018-08-14T06:08:17.431Z,16.60
2018-08-14T06:10:46.528Z,16.60
2018-08-14T06:13:14.969Z,16.40
2018-08-14T06:15:43.449Z,16.30
2018-08-14T06:18:11.946Z,16.30
2018-08-14T06:20:43.160Z,16.30
2018-08-14T06:23:11.669Z,16.30
2018-08-14T06:25:40.201Z,16.30
2018-08-14T06:28:08.747Z,16.40
2018-08-14T06:30:37.157Z,16.40
2018-08-14T06:33:05.929Z,16.30
2018-08-14T06:35:35.182Z,16.40
2018-08-14T06:38:03.720Z,16.40
2018-08-14T06:40:32.209Z,16.40
2018-08-14T06:43:00.716Z,16.40
2018-08-14T06:45:29.184Z,16.40
2018-08-14T06:47:57.692Z,16.50
2018-08-14T06:50:26.187Z,16.60
2018-08-14T06:52:54.692Z,16.70
2018-08-14T06:55:23.224Z,16.80
2018-08-14T06:57:51.692Z,16.90
2018-08-14T07:00:20.908Z,16.90
2018-08-14T07:02:50.561Z,16.80
2018-08-14T07:05:19.268Z,16.90
2018-08-14T07:07:47.769Z,16.90
2018-08-14T07:10:17.134Z,16.90
2018-08-14T07:12:45.620Z,17.00
2018-08-14T07:15:18.064Z,17.00
2018-08-14T07:17:46.898Z,17.10
2018-08-14T07:20:15.712Z,17.00
2018-08-14T07:22:44.964Z,17.10
2018-08-14T07:25:15.042Z,17.30
2018-08-14T07:27:43.799Z,17.30
2018-08-14T07:30:16.886Z,17.40
2018-08-14T07:32:45.804Z,17.50
2018-08-14T07:35:14.368Z,17.80
2018-08-14T07:37:43.536Z,18.20
2018-08-14T07:40:12.536Z,18.30
2018-08-14T07:42:41.024Z,18.30
2018-08-14T07:45:11.416Z,18.60
2018-08-14T07:47:40.240Z,19.00
2018-08-14T07:50:09.543Z,18.70
2018-08-14T07:52:38.324Z,18.90
2018-08-14T07:55:08.146Z,18.80
2018-08-14T07:57:37.232Z,18.70
2018-08-14T08:00:09.668Z,18.60
2018-08-14T08:02:38.152Z,18.40
2018-08-14T08:05:07.430Z,18.30
2018-08-14T08:07:35.978Z,18.40
2018-08-14T08:10:06.681Z,18.20
2018-08-14T08:12:35.177Z,18.00
2018-08-14T08:15:04.528Z,17.80
2018-08-14T08:17:32.984Z,17.70
2018-08-14T08:20:01.440Z,17.70
2018-08-14T08:22:30.541Z,17.80
2018-08-14T08:25:00.072Z,17.90
2018-08-14T08:27:28.829Z,17.70
2018-08-14T08:29:57.552Z,17.80
2018-08-14T08:32:26.009Z,17.70
2018-08-14T08:34:54.513Z,18.00
2018-08-14T08:37:23.066Z,18.40
2018-08-14T08:39:51.637Z,18.80
2018-08-14T08:42:20.141Z,19.60
2018-08-14T08:44:48.634Z,20.30
2018-08-14T08:47:17.117Z,19.90
2018-08-14T08:49:45.629Z,20.00
2018-08-14T08:52:14.150Z,19.60
2018-08-14T08:54:42.769Z,19.20
2018-08-14T08:57:11.241Z,19.20
2018-08-14T08:59:40.120Z,19.00
2018-08-14T09:02:08.691Z,19.00
2018-08-14T09:04:37.209Z,19.20
2018-08-14T09:07:05.989Z,19.50
2018-08-14T09:09:34.517Z,19.70
2018-08-14T09:12:03.071Z,20.10
2018-08-14T09:14:31.605Z,20.50
2018-08-14T09:17:00.132Z,20.50
2018-08-14T09:19:28.649Z,21.00
2018-08-14T09:21:57.165Z,21.10
2018-08-14T09:24:25.696Z,21.80
2018-08-14T09:26:54.278Z,22.10
2018-08-14T09:29:22.737Z,21.60
2018-08-14T09:31:51.220Z,21.70
2018-08-14T09:34:19.776Z,22.00
2018-08-14T09:36:48.347Z,22.00
2018-08-14T09:39:17.496Z,21.00
2018-08-14T09:41:45.948Z,21.60
2018-08-14T09:44:14.512Z,21.90
2018-08-14T09:46:42.988Z,21.90
2018-08-14T09:49:11.556Z,22.30
2018-08-14T09:51:40.041Z,22.50
2018-08-14T09:54:08.610Z,22.40
2018-08-14T09:56:37.776Z,22.50
2018-08-14T09:59:06.373Z,22.00
2018-08-14T10:01:40.182Z,21.40
2018-08-14T10:04:14.713Z,21.10
2018-08-14T10:06:48.572Z,21.20
2018-08-14T10:09:17.108Z,21.40
2018-08-14T10:11:45.574Z,22.00
2018-08-14T10:14:14.028Z,22.00
2018-08-14T10:16:42.520Z,22.30
2018-08-14T10:19:11.058Z,22.70
2018-08-14T10:21:39.609Z,22.20
2018-08-14T10:24:08.136Z,22.00
2018-08-14T10:26:36.688Z,22.20
2018-08-14T10:29:05.202Z,22.10
2018-08-14T10:31:33.741Z,23.20
2018-08-14T10:34:02.288Z,23.60
2018-08-14T10:36:30.756Z,23.80
2018-08-14T10:38:59.238Z,23.60
2018-08-14T10:41:28.140Z,23.30
2018-08-14T10:43:56.645Z,23.50
2018-08-14T10:46:25.159Z,23.50
2018-08-14T10:48:53.612Z,23.40
2018-08-14T10:51:22.105Z,23.10
2018-08-14T10:53:50.612Z,23.20
2018-08-14T10:56:19.152Z,23.80
2018-08-14T10:58:47.748Z,24.50
2018-08-14T11:01:16.632Z,24.40
2018-08-14T11:03:45.119Z,24.80
2018-08-14T11:06:13.667Z,24.20
2018-08-14T11:08:42.173Z,24.40
2018-08-14T11:11:15.667Z,24.00
2018-08-14T11:13:44.224Z,24.20
2018-08-14T11:16:12.701Z,24.00
2018-08-14T11:18:41.207Z,23.80
2018-08-14T11:21:09.692Z,23.80
2018-08-14T11:23:38.173Z,23.10
2018-08-14T11:26:06.708Z,23.80
2018-08-14T11:28:35.200Z,24.60
2018-08-14T11:31:03.715Z,23.90
2018-08-14T11:33:32.188Z,24.20
2018-08-14T11:36:06.317Z,25.00
2018-08-14T11:38:35.541Z,25.40
2018-08-14T11:41:04.749Z,25.50
2018-08-14T11:43:33.258Z,24.80
2018-08-14T11:46:01.768Z,24.80
2018-08-14T11:48:30.433Z,25.00
2018-08-14T11:50:58.956Z,25.50
2018-08-14T11:53:27.386Z,25.70
2018-08-14T11:55:55.841Z,25.60
2018-08-14T11:58:24.326Z,25.30
2018-08-14T12:00:52.832Z,25.30
2018-08-14T12:03:21.318Z,25.70
2018-08-14T12:05:49.809Z,25.00
2018-08-14T12:08:18.318Z,25.20
2018-08-14T12:10:46.833Z,25.40
2018-08-14T12:13:15.253Z,24.20
2018-08-14T12:15:43.739Z,24.10
2018-08-14T12:18:12.266Z,23.80
2018-08-14T12:20:40.684Z,24.30
2018-08-14T12:23:09.163Z,24.60
2018-08-14T12:25:37.596Z,25.00
2018-08-14T12:28:06.124Z,25.30
2018-08-14T12:30:34.604Z,25.90
2018-08-14T12:33:03.112Z,25.00
2018-08-14T12:35:31.628Z,25.70
2018-08-14T12:38:00.109Z,26.30
2018-08-14T12:40:28.897Z,25.40
2018-08-14T12:42:57.368Z,25.10
2018-08-14T12:45:25.834Z,25.00
2018-08-14T12:47:54.368Z,24.40
2018-08-14T12:50:23.209Z,24.20
2018-08-14T12:52:51.712Z,24.00
2018-08-14T12:55:20.208Z,24.00
2018-08-14T12:57:48.816Z,23.90
2018-08-14T13:00:22.951Z,23.50
2018-08-14T13:02:52.132Z,23.00
2018-08-14T13:05:21.052Z,22.60
2018-08-14T13:07:49.580Z,22.50
2018-08-14T13:10:18.107Z,21.70
2018-08-14T13:12:46.604Z,21.10
2018-08-14T13:15:15.364Z,20.90
2018-08-14T13:17:57.346Z,20.70
2018-08-14T13:20:25.883Z,20.50
2018-08-14T13:22:54.612Z,20.40
2018-08-14T13:25:23.393Z,20.80
2018-08-14T13:27:51.884Z,20.50
2018-08-14T13:30:20.328Z,20.80
2018-08-14T13:32:49.001Z,20.90
2018-08-14T13:35:17.496Z,20.90
2018-08-14T13:37:46.013Z,21.20
2018-08-14T13:40:15.204Z,21.10
2018-08-14T13:42:43.609Z,21.00
2018-08-14T13:45:13.181Z,21.20
2018-08-14T13:47:42.166Z,21.20
2018-08-14T13:50:11.906Z,21.20
2018-08-14T13:52:40.710Z,21.60
2018-08-14T13:55:14.541Z,19.80
2018-08-14T13:57:43.693Z,21.70
2018-08-14T14:00:15.129Z,21.90
2018-08-14T14:02:44.224Z,21.70
2018-08-14T14:05:13.533Z,21.90
2018-08-14T14:07:42.064Z,21.80
2018-08-14T14:10:12.109Z,22.00
2018-08-14T14:12:40.817Z,22.00
2018-08-14T14:15:15.093Z,22.20
2018-08-14T14:17:45.190Z,22.60
2018-08-14T14:20:14.232Z,23.30
2018-08-14T14:22:43.536Z,23.80
2018-08-14T14:25:12.408Z,23.60
2018-08-14T14:27:41.341Z,23.50
2018-08-14T14:30:12.145Z,22.90
2018-08-14T14:32:40.932Z,22.80
2018-08-14T14:35:10.526Z,22.50
2018-08-14T14:37:39.223Z,22.70
2018-08-14T14:40:11.932Z,22.40
2018-08-14T14:42:40.473Z,22.60
2018-08-14T14:45:11.328Z,22.80
2018-08-14T14:47:40.412Z,22.50
2018-08-14T14:50:09.698Z,22.50
2018-08-14T14:52:38.548Z,22.60
2018-08-14T14:55:10.564Z,22.70
2018-08-14T14:57:39.650Z,22.50
2018-08-14T15:00:12.897Z,22.40
2018-08-14T15:02:41.380Z,22.50
2018-08-14T15:05:09.896Z,23.00
2018-08-14T15:07:38.407Z,23.20
2018-08-14T15:10:07.172Z,23.20
2018-08-14T15:12:35.661Z,22.90
2018-08-14T15:15:04.669Z,22.50
2018-08-14T15:17:33.108Z,22.70
2018-08-14T15:20:01.680Z,22.50
2018-08-14T15:22:30.124Z,22.20
2018-08-14T15:24:58.604Z,21.60
2018-08-14T15:27:27.069Z,20.90
2018-08-14T15:30:00.602Z,20.20
2018-08-14T15:32:29.052Z,20.10
2018-08-14T15:34:57.527Z,19.70
2018-08-14T15:37:26.081Z,19.60
2018-08-14T15:39:54.652Z,19.70
2018-08-14T15:42:23.105Z,19.90
2018-08-14T15:44:51.549Z,20.00
2018-08-14T15:47:19.989Z,20.10
2018-08-14T15:49:48.564Z,20.10
2018-08-14T15:52:16.925Z,20.20
2018-08-14T15:54:45.381Z,20.30
2018-08-14T15:57:13.849Z,20.70
2018-08-14T15:59:42.301Z,21.00
2018-08-14T16:02:10.780Z,21.30
2018-08-14T16:04:39.294Z,21.40
2018-08-14T16:07:07.830Z,21.40
2018-08-14T16:09:36.377Z,21.40
2018-08-14T16:12:05.328Z,21.40
2018-08-14T16:14:33.799Z,21.50
2018-08-14T16:17:02.304Z,21.40
2018-08-14T16:19:30.792Z,21.40
2018-08-14T16:21:59.249Z,21.70
2018-08-14T16:24:27.749Z,21.70
2018-08-14T16:26:56.205Z,21.70
2018-08-14T16:29:24.713Z,21.70
2018-08-14T16:31:53.218Z,21.40
2018-08-14T16:34:21.753Z,21.60
2018-08-14T16:36:50.230Z,21.50
2018-08-14T16:39:18.705Z,21.40
2018-08-14T16:41:47.232Z,21.40
2018-08-14T16:44:15.712Z,21.60
2018-08-14T16:46:44.243Z,21.80
2018-08-14T16:49:12.711Z,21.70
2018-08-14T16:51:41.211Z,21.70
2018-08-14T16:54:09.680Z,21.60
2018-08-14T16:56:38.158Z,21.80
2018-08-14T16:59:06.782Z,21.60
2018-08-14T17:01:35.338Z,21.30
2018-08-14T17:04:03.796Z,21.50
2018-08-14T17:06:32.384Z,21.60
2018-08-14T17:09:00.860Z,21.40
2018-08-14T17:11:29.317Z,21.50
2018-08-14T17:13:57.768Z,21.50
2018-08-14T17:16:26.297Z,21.30
2018-08-14T17:18:54.740Z,21.30
2018-08-14T17:21:22.124Z,21.40
2018-08-14T17:23:50.604Z,21.30
2018-08-14T17:26:19.085Z,21.30
2018-08-14T17:28:48.516Z,21.30
2018-08-14T17:31:17.055Z,21.10
2018-08-14T17:33:45.524Z,21.20
2018-08-14T17:36:14.014Z,21.20
2018-08-14T17:38:42.481Z,21.30
2018-08-14T17:41:10.957Z,21.10
2018-08-14T17:43:40.085Z,21.20
2018-08-14T17:46:08.524Z,21.10
2018-08-14T17:48:37.020Z,21.20
2018-08-14T17:51:05.537Z,21.20
2018-08-14T17:53:34.154Z,21.10
2018-08-14T17:56:02.674Z,21.10
2018-08-14T17:58:31.139Z,20.90
2018-08-14T18:00:59.608Z,20.90
2018-08-14T18:03:28.136Z,20.90
2018-08-14T18:05:56.584Z,20.80
2018-08-14T18:08:25.108Z,20.80
2018-08-14T18:10:53.614Z,20.80
2018-08-14T18:13:22.140Z,20.80
2018-08-14T18:15:50.592Z,20.90
2018-08-14T18:18:19.107Z,21.00
2018-08-14T18:20:47.580Z,20.90
2018-08-14T18:23:16.116Z,20.90
2018-08-14T18:25:44.544Z,20.80
2018-08-14T18:28:13.024Z,20.60
2018-08-14T18:30:41.456Z,20.40
2018-08-14T18:33:09.975Z,20.30
2018-08-14T18:35:39.105Z,20.30
2018-08-14T18:38:07.581Z,20.20
2018-08-14T18:40:36.069Z,20.10
2018-08-14T18:43:04.649Z,20.10
2018-08-14T18:45:33.097Z,20.00
2018-08-14T18:48:01.592Z,19.90
2018-08-14T18:50:30.029Z,19.80
2018-08-14T18:52:58.504Z,19.70
2018-08-14T18:55:26.946Z,19.70
2018-08-14T18:57:55.464Z,19.60
2018-08-14T19:00:25.248Z,19.50
2018-08-14T19:02:55.246Z,19.50
2018-08-14T19:05:24.056Z,19.60
2018-08-14T19:07:52.709Z,19.60
2018-08-14T19:10:22.880Z,19.60
2018-08-14T19:12:52.284Z,19.60
2018-08-14T19:15:39.284Z,19.60
2018-08-14T19:18:11.265Z,19.60
2018-08-14T19:20:40.045Z,19.60
2018-08-14T19:23:08.727Z,19.70
2018-08-14T19:25:37.232Z,19.70
2018-08-14T19:28:05.824Z,19.70
2018-08-14T19:30:34.361Z,19.90
2018-08-14T19:33:02.972Z,19.90
2018-08-14T19:35:31.520Z,19.80
2018-08-14T19:38:00.030Z,19.80
2018-08-14T19:40:28.488Z,19.80
2018-08-14T19:42:57.006Z,19.80
2018-08-14T19:45:25.529Z,19.80
2018-08-14T19:47:54.075Z,19.80
2018-08-14T19:50:22.545Z,19.70
2018-08-14T19:52:51.133Z,19.80
2018-08-14T19:55:20.839Z,19.70
2018-08-14T19:57:50.727Z,19.60
2018-08-14T20:00:21.724Z,19.50
2018-08-14T20:02:50.882Z,19.60
2018-08-14T20:05:19.504Z,19.60
2018-08-14T20:07:48.252Z,19.60
2018-08-14T20:10:17.476Z,19.40
2018-08-14T20:12:46.095Z,19.30
2018-08-14T20:15:17.128Z,19.30
2018-08-14T20:17:45.985Z,19.30
2018-08-14T20:20:17.928Z,19.20
2018-08-14T20:22:47.710Z,19.20
2018-08-14T20:25:16.255Z,19.20
2018-08-14T20:27:45.450Z,19.30
2018-08-14T20:30:16.850Z,19.20
2018-08-14T20:32:46.408Z,19.10
2018-08-14T20:35:15.951Z,19.00
2018-08-14T20:37:45.460Z,18.90
2018-08-14T20:40:17.268Z,18.90
2018-08-14T20:42:45.916Z,18.80
2018-08-14T20:45:14.809Z,18.70
2018-08-14T20:47:43.985Z,18.60
2018-08-14T20:50:14.898Z,18.50
2018-08-14T20:52:43.972Z,18.50
2018-08-14T20:55:13.245Z,18.40
2018-08-14T20:57:43.008Z,18.40
2018-08-14T21:00:15.274Z,18.20
2018-08-14T21:02:43.799Z,18.00
2018-08-14T21:05:12.408Z,17.90
2018-08-14T21:07:41.043Z,17.80
2018-08-14T21:10:09.909Z,17.70
2018-08-14T21:12:44.206Z,17.60
2018-08-14T21:15:20.813Z,17.60
2018-08-14T21:17:49.617Z,17.50
2018-08-14T21:20:19.178Z,17.40
2018-08-14T21:22:48.182Z,17.40
2018-08-14T21:25:17.345Z,17.40
2018-08-14T21:27:45.974Z,17.60
2018-08-14T21:30:15.956Z,17.80
2018-08-14T21:32:45.049Z,17.90
2018-08-14T21:35:14.940Z,18.00
2018-08-14T21:37:43.512Z,18.00
2018-08-14T21:40:13.935Z,18.00
2018-08-14T21:42:43.512Z,17.90
2018-08-14T21:45:15.188Z,17.80
2018-08-14T21:47:43.921Z,17.60
2018-08-14T21:50:12.413Z,17.60
2018-08-14T21:52:41.073Z,17.70
2018-08-14T21:55:11.108Z,17.70
2018-08-14T21:57:40.632Z,17.70
2018-08-14T22:00:17.777Z,17.70
2018-08-14T22:02:46.504Z,17.60
2018-08-14T22:05:15.787Z,17.40
2018-08-14T22:07:44.868Z,17.30
2018-08-14T22:10:14.459Z,17.30
2018-08-14T22:12:42.992Z,17.20
2018-08-14T22:15:11.537Z,17.30
2018-08-14T22:17:40.112Z,17.30
2018-08-14T22:20:11.073Z,17.30
2018-08-14T22:22:39.702Z,17.40
2018-08-14T22:25:08.456Z,17.40
2018-08-14T22:27:36.972Z,17.40
2018-08-14T22:30:08.209Z,17.30
2018-08-14T22:32:36.720Z,17.20
2018-08-14T22:35:05.612Z,17.10
2018-08-14T22:37:34.110Z,17.10
2018-08-14T22:40:03.068Z,17.00
2018-08-14T22:42:31.568Z,17.10
2018-08-14T22:45:00.023Z,17.00
2018-08-14T22:47:28.466Z,16.90
2018-08-14T22:49:56.921Z,16.80
2018-08-14T22:52:25.425Z,16.70
2018-08-14T22:54:53.950Z,16.70
2018-08-14T22:57:22.369Z,16.70
2018-08-14T22:59:50.826Z,16.70
2018-08-14T23:02:19.288Z,16.70
2018-08-14T23:04:47.741Z,16.70
2018-08-14T23:07:16.185Z,16.80
2018-08-14T23:09:44.697Z,16.80
2018-08-14T23:12:13.180Z,16.70
2018-08-14T23:14:41.638Z,16.70
2018-08-14T23:17:10.057Z,16.70
2018-08-14T23:19:38.516Z,16.70
2018-08-14T23:22:07.636Z,16.60
2018-08-14T23:24:36.104Z,16.50
2018-08-14T23:27:04.924Z,16.40
2018-08-14T23:29:33.368Z,16.20
2018-08-14T23:32:02.077Z,16.10
2018-08-14T23:34:30.540Z,16.10
2018-08-14T23:36:59.133Z,16.10
2018-08-14T23:39:27.649Z,16.00
2018-08-14T23:41:56.065Z,16.00
2018-08-14T23:44:24.530Z,16.00
2018-08-14T23:46:52.975Z,15.90
2018-08-14T23:49:21.440Z,15.90
2018-08-14T23:51:49.895Z,16.10
2018-08-14T23:54:18.336Z,16.20
2018-08-14T23:56:46.818Z,16.30
2018-08-14T23:59:15.280Z,16.40
